sensor_id;sensor_type;location;lat;lon;timestamp;pressure;altitude;pressure_sealevel;temperature;humidity
10466;BME280;5280;42.600;23.556;2023-01-30T00:01:58;93603.13;;;-0.93;100.00
10466;BME280;5280;42.600;23.556;2023-01-30T00:04:25;93639.75;;;-0.75;100.00
10466;BME280;5280;42.600;23.556;2023-01-30T00:06:52;93561.41;;;-1.13;100.00
10466;BME280;5280;42.600;23.556;2023-01-30T00:09:21;93500.44;;;-1.51;100.00
10466;BME280;5280;42.600;23.556;2023-01-30T00:11:51;93578.69;;;-1.12;100.00
10466;BME280;5280;42.600;23.556;2023-01-30T00:14:24;93504.78;;;-1.51;100.00
10466;BME280;5280;42.600;23.556;2023-01-30T00:16:53;93541.09;;;-1.25;100.00
10466;BME280;5280;42.600;23.556;2023-01-30T00:19:20;93501.56;;;-1.59;100.00
10466;BME280;5280;42.600;23.556;2023-01-30T00:21:47;93620.28;;;-0.89;100.00
10466;BME280;5280;42.600;23.556;2023-01-30T00:24:14;93617.69;;;-0.89;100.00
10466;BME280;5280;42.600;23.556;2023-01-30T00:26:40;93608.72;;;-1.05;100.00
10466;BME280;5280;42.600;23.556;2023-01-30T00:29:07;93618.88;;;-0.99;100.00
10466;BME280;5280;42.600;23.556;2023-01-30T00:31:34;93576.75;;;-1.33;100.00
10466;BME280;5280;42.600;23.556;2023-01-30T00:34:02;93605.91;;;-1.25;100.00
10466;BME280;5280;42.600;23.556;2023-01-30T00:36:29;93619.72;;;-0.98;100.00
10466;BME280;5280;42.600;23.556;2023-01-30T00:38:56;93609.34;;;-0.98;100.00
10466;BME280;5280;42.600;23.556;2023-01-30T00:41:23;93585.59;;;-1.12;100.00
10466;BME280;5280;42.600;23.556;2023-01-30T00:44:10;93617.28;;;-1.03;100.00
10466;BME280;5280;42.600;23.556;2023-01-30T00:46:53;93610.31;;;-1.01;100.00
10466;BME280;5280;42.600;23.556;2023-01-30T00:49:35;93608.56;;;-1.00;100.00
10466;BME280;5280;42.600;23.556;2023-01-30T00:52:03;93522.03;;;-1.50;100.00
10466;BME280;5280;42.600;23.556;2023-01-30T00:54:31;93598.53;;;-1.11;100.00
10466;BME280;5280;42.600;23.556;2023-01-30T00:56:57;93600.97;;;-1.06;100.00
10466;BME280;5280;42.600;23.556;2023-01-30T00:59:25;93599.09;;;-1.01;100.00
10466;BME280;5280;42.600;23.556;2023-01-30T01:01:51;93576.75;;;-1.33;100.00
10466;BME280;5280;42.600;23.556;2023-01-30T01:04:18;93603.59;;;-1.08;100.00
10466;BME280;5280;42.600;23.556;2023-01-30T01:06:47;93607.50;;;-1.21;100.00
10466;BME280;5280;42.600;23.556;2023-01-30T01:09:13;93578.50;;;-1.34;100.00
10466;BME280;5280;42.600;23.556;2023-01-30T01:11:40;93594.00;;;-1.32;100.00
10466;BME280;5280;42.600;23.556;2023-01-30T01:14:07;93596.41;;;-1.26;100.00
10466;BME280;5280;42.600;23.556;2023-01-30T01:16:35;93602.38;;;-1.24;100.00
10466;BME280;5280;42.600;23.556;2023-01-30T01:19:02;93600.78;;;-1.28;100.00
10466;BME280;5280;42.600;23.556;2023-01-30T01:21:29;93594.03;;;-1.34;100.00
10466;BME280;5280;42.600;23.556;2023-01-30T01:23:58;93599.03;;;-1.27;100.00
10466;BME280;5280;42.600;23.556;2023-01-30T01:26:26;93596.31;;;-1.23;100.00
10466;BME280;5280;42.600;23.556;2023-01-30T01:28:53;93592.00;;;-1.24;100.00
10466;BME280;5280;42.600;23.556;2023-01-30T01:31:20;93559.91;;;-1.46;100.00
10466;BME280;5280;42.600;23.556;2023-01-30T01:33:48;93589.81;;;-1.36;100.00
10466;BME280;5280;42.600;23.556;2023-01-30T01:36:15;93587.19;;;-1.35;100.00
10466;BME280;5280;42.600;23.556;2023-01-30T01:38:42;93576.34;;;-1.47;100.00
10466;BME280;5280;42.600;23.556;2023-01-30T01:41:11;93590.75;;;-1.39;100.00
10466;BME280;5280;42.600;23.556;2023-01-30T01:43:55;93589.84;;;-1.38;100.00
10466;BME280;5280;42.600;23.556;2023-01-30T01:46:27;93591.56;;;-1.37;100.00
10466;BME280;5280;42.600;23.556;2023-01-30T01:48:57;93595.16;;;-1.41;100.00
10466;BME280;5280;42.600;23.556;2023-01-30T01:51:28;93517.09;;;-1.86;100.00
10466;BME280;5280;42.600;23.556;2023-01-30T01:53:58;93593.44;;;-1.42;100.00
10466;BME280;5280;42.600;23.556;2023-01-30T01:56:30;93581.56;;;-1.49;100.00
10466;BME280;5280;42.600;23.556;2023-01-30T01:59:01;93579.66;;;-1.44;100.00
10466;BME280;5280;42.600;23.556;2023-01-30T02:01:30;93586.22;;;-1.32;100.00
10466;BME280;5280;42.600;23.556;2023-01-30T02:04:00;93582.91;;;-1.36;100.00
10466;BME280;5280;42.600;23.556;2023-01-30T02:06:29;93593.34;;;-1.39;100.00
10466;BME280;5280;42.600;23.556;2023-01-30T02:08:58;93588.94;;;-1.35;100.00
10466;BME280;5280;42.600;23.556;2023-01-30T02:11:33;93591.38;;;-1.31;100.00
10466;BME280;5280;42.600;23.556;2023-01-30T02:14:03;93597.41;;;-1.30;100.00
10466;BME280;5280;42.600;23.556;2023-01-30T02:16:30;93587.97;;;-1.33;100.00
10466;BME280;5280;42.600;23.556;2023-01-30T02:18:57;93589.69;;;-1.32;100.00
10466;BME280;5280;42.600;23.556;2023-01-30T02:21:49;93589.81;;;-1.36;100.00
10466;BME280;5280;42.600;23.556;2023-01-30T02:30:43;93582.00;;;-1.35;100.00
10466;BME280;5280;42.600;23.556;2023-01-30T02:33:17;93582.97;;;-1.39;100.00
10466;BME280;5280;42.600;23.556;2023-01-30T02:35:52;93583.81;;;-1.38;100.00
10466;BME280;5280;42.600;23.556;2023-01-30T02:38:32;93578.56;;;-1.35;100.00
10466;BME280;5280;42.600;23.556;2023-01-30T02:41:10;93576.84;;;-1.36;100.00
10466;BME280;5280;42.600;23.556;2023-01-30T02:43:45;93546.97;;;-1.48;100.00
10466;BME280;5280;42.600;23.556;2023-01-30T02:46:21;93560.63;;;-1.43;100.00
10466;BME280;5280;42.600;23.556;2023-01-30T02:48:53;93561.53;;;-1.44;100.00
10466;BME280;5280;42.600;23.556;2023-01-30T02:51:23;93559.59;;;-1.37;100.00
10466;BME280;5280;42.600;23.556;2023-01-30T02:53:52;93557.06;;;-1.39;100.00
10466;BME280;5280;42.600;23.556;2023-01-30T02:56:20;93552.44;;;-1.29;100.00
10466;BME280;5280;42.600;23.556;2023-01-30T02:58:48;93554.38;;;-1.36;100.00
10466;BME280;5280;42.600;23.556;2023-01-30T03:01:29;93559.72;;;-1.40;100.00
10466;BME280;5280;42.600;23.556;2023-01-30T03:04:14;93557.13;;;-1.40;100.00
10466;BME280;5280;42.600;23.556;2023-01-30T03:07:01;93554.53;;;-1.40;100.00
10466;BME280;5280;42.600;23.556;2023-01-30T03:09:41;93558.69;;;-1.35;100.00
10466;BME280;5280;42.600;23.556;2023-01-30T03:12:15;93552.84;;;-1.41;100.00
10466;BME280;5280;42.600;23.556;2023-01-30T03:14:47;93547.53;;;-1.38;100.00
10466;BME280;5280;42.600;23.556;2023-01-30T03:17:18;93541.44;;;-1.36;100.00
10466;BME280;5280;42.600;23.556;2023-01-30T03:19:46;93538.13;;;-1.41;100.00
10466;BME280;5280;42.600;23.556;2023-01-30T03:22:19;93529.34;;;-1.37;100.00
10466;BME280;5280;42.600;23.556;2023-01-30T03:24:46;93515.16;;;-1.51;100.00
10466;BME280;5280;42.600;23.556;2023-01-30T03:27:13;93522.72;;;-1.45;100.00
10466;BME280;5280;42.600;23.556;2023-01-30T03:29:40;93470.59;;;-1.90;100.00
10466;BME280;5280;42.600;23.556;2023-01-30T03:32:07;93523.81;;;-1.52;100.00
10466;BME280;5280;42.600;23.556;2023-01-30T03:34:35;93525.41;;;-1.48;100.00
10466;BME280;5280;42.600;23.556;2023-01-30T03:37:05;93502.41;;;-1.59;100.00
10466;BME280;5280;42.600;23.556;2023-01-30T03:39:31;93522.63;;;-1.42;100.00
10466;BME280;5280;42.600;23.556;2023-01-30T03:41:58;93485.38;;;-1.66;100.00
10466;BME280;5280;42.600;23.556;2023-01-30T03:44:25;93513.25;;;-1.46;100.00
10466;BME280;5280;42.600;23.556;2023-01-30T03:46:52;93532.25;;;-1.46;100.00
10466;BME280;5280;42.600;23.556;2023-01-30T03:49:18;93518.50;;;-1.49;100.00
10466;BME280;5280;42.600;23.556;2023-01-30T03:51:47;93518.66;;;-1.54;100.00
10466;BME280;5280;42.600;23.556;2023-01-30T03:54:14;93528.88;;;-1.49;100.00
10466;BME280;5280;42.600;23.556;2023-01-30T03:56:40;93521.97;;;-1.49;100.00
10466;BME280;5280;42.600;23.556;2023-01-30T03:59:08;93521.91;;;-1.47;100.00
10466;BME280;5280;42.600;23.556;2023-01-30T04:01:34;93519.47;;;-1.52;100.00
10466;BME280;5280;42.600;23.556;2023-01-30T04:04:04;93464.59;;;-1.91;100.00
10466;BME280;5280;42.600;23.556;2023-01-30T04:06:31;93438.41;;;-2.09;100.00
10466;BME280;5280;42.600;23.556;2023-01-30T04:08:59;93516.06;;;-1.54;100.00
10466;BME280;5280;42.600;23.556;2023-01-30T04:11:29;93515.59;;;-1.65;100.00
10466;BME280;5280;42.600;23.556;2023-01-30T04:13:55;93515.63;;;-1.66;100.00
10466;BME280;5280;42.600;23.556;2023-01-30T04:16:24;93512.84;;;-1.60;100.00
10466;BME280;5280;42.600;23.556;2023-01-30T04:18:52;93523.22;;;-1.60;100.00
10466;BME280;5280;42.600;23.556;2023-01-30T04:21:19;93514.59;;;-1.61;100.00
10466;BME280;5280;42.600;23.556;2023-01-30T04:23:46;93524.22;;;-1.64;100.00
10466;BME280;5280;42.600;23.556;2023-01-30T04:26:14;93529.97;;;-1.56;100.00
10466;BME280;5280;42.600;23.556;2023-01-30T04:28:41;93522.28;;;-1.59;100.00
10466;BME280;5280;42.600;23.556;2023-01-30T04:31:09;93507.75;;;-1.63;100.00
10466;BME280;5280;42.600;23.556;2023-01-30T04:33:35;93411.22;;;-2.24;100.00
10466;BME280;5280;42.600;23.556;2023-01-30T04:36:05;93513.00;;;-1.65;100.00
10466;BME280;5280;42.600;23.556;2023-01-30T04:38:34;93517.88;;;-1.56;100.00
10466;BME280;5280;42.600;23.556;2023-01-30T04:41:01;93484.72;;;-1.73;100.00
10466;BME280;5280;42.600;23.556;2023-01-30T04:43:29;93506.56;;;-1.53;100.00
10466;BME280;5280;42.600;23.556;2023-01-30T04:45:57;93512.75;;;-1.57;100.00
10466;BME280;5280;42.600;23.556;2023-01-30T04:48:25;93508.41;;;-1.57;100.00
10466;BME280;5280;42.600;23.556;2023-01-30T04:50:53;93493.78;;;-1.59;100.00
10466;BME280;5280;42.600;23.556;2023-01-30T04:53:21;93499.69;;;-1.54;100.00
10466;BME280;5280;42.600;23.556;2023-01-30T04:55:48;93497.91;;;-1.52;100.00
10466;BME280;5280;42.600;23.556;2023-01-30T04:58:15;93497.09;;;-1.54;100.00
10466;BME280;5280;42.600;23.556;2023-01-30T05:00:45;93454.84;;;-1.84;100.00
10466;BME280;5280;42.600;23.556;2023-01-30T05:03:12;93470.19;;;-1.77;100.00
10466;BME280;5280;42.600;23.556;2023-01-30T05:05:39;93493.13;;;-1.64;100.00
10466;BME280;5280;42.600;23.556;2023-01-30T05:08:06;93492.97;;;-1.60;100.00
10466;BME280;5280;42.600;23.556;2023-01-30T05:10:33;93455.72;;;-1.84;100.00
10466;BME280;5280;42.600;23.556;2023-01-30T05:13:03;93487.88;;;-1.63;100.00
10466;BME280;5280;42.600;23.556;2023-01-30T05:15:30;93494.63;;;-1.59;100.00
10466;BME280;5280;42.600;23.556;2023-01-30T05:17:59;93495.63;;;-1.63;100.00
10466;BME280;5280;42.600;23.556;2023-01-30T05:20:26;93490.53;;;-1.64;100.00
10466;BME280;5280;42.600;23.556;2023-01-30T05:22:53;93471.03;;;-1.76;100.00
10466;BME280;5280;42.600;23.556;2023-01-30T05:25:20;93499.97;;;-1.63;100.00
10466;BME280;5280;42.600;23.556;2023-01-30T05:27:46;93489.81;;;-1.69;100.00
10466;BME280;5280;42.600;23.556;2023-01-30T05:30:13;93500.94;;;-1.66;100.00
10466;BME280;5280;42.600;23.556;2023-01-30T05:32:40;93501.84;;;-1.68;100.00
10466;BME280;5280;42.600;23.556;2023-01-30T05:35:08;93496.50;;;-1.62;100.00
10466;BME280;5280;42.600;23.556;2023-01-30T05:37:35;93507.56;;;-1.57;100.00
10466;BME280;5280;42.600;23.556;2023-01-30T05:40:04;93505.78;;;-1.55;100.00
10466;BME280;5280;42.600;23.556;2023-01-30T05:42:31;93479.31;;;-1.65;100.00
10466;BME280;5280;42.600;23.556;2023-01-30T05:44:58;93487.94;;;-1.64;100.00
10466;BME280;5280;42.600;23.556;2023-01-30T05:47:25;93488.34;;;-1.50;100.00
10466;BME280;5280;42.600;23.556;2023-01-30T05:49:52;93502.16;;;-1.50;100.00
10466;BME280;5280;42.600;23.556;2023-01-30T05:52:20;93499.59;;;-1.51;100.00
10466;BME280;5280;42.600;23.556;2023-01-30T05:54:46;93510.00;;;-1.53;100.00
10466;BME280;5280;42.600;23.556;2023-01-30T05:57:13;93517.69;;;-1.50;100.00
10466;BME280;5280;42.600;23.556;2023-01-30T05:59:40;93507.56;;;-1.57;100.00
10466;BME280;5280;42.600;23.556;2023-01-30T06:02:07;93519.19;;;-1.43;100.00
10466;BME280;5280;42.600;23.556;2023-01-30T06:04:33;93509.97;;;-1.51;100.00
10466;BME280;5280;42.600;23.556;2023-01-30T06:07:00;93511.44;;;-1.44;100.00
10466;BME280;5280;42.600;23.556;2023-01-30T06:09:29;93483.56;;;-1.64;100.00
10466;BME280;5280;42.600;23.556;2023-01-30T06:11:55;93515.81;;;-1.45;100.00
10466;BME280;5280;42.600;23.556;2023-01-30T06:14:22;93511.56;;;-1.47;100.00
10466;BME280;5280;42.600;23.556;2023-01-30T06:16:49;93476.09;;;-1.73;100.00
10466;BME280;5280;42.600;23.556;2023-01-30T06:19:16;93497.91;;;-1.52;100.00
10466;BME280;5280;42.600;23.556;2023-01-30T06:21:43;93496.31;;;-1.56;100.00
10466;BME280;5280;42.600;23.556;2023-01-30T06:24:10;93509.25;;;-1.56;100.00
10466;BME280;5280;42.600;23.556;2023-01-30T06:26:38;93430.53;;;-2.06;100.00
10466;BME280;5280;42.600;23.556;2023-01-30T06:29:05;93499.19;;;-1.39;100.00
10466;BME280;5280;42.600;23.556;2023-01-30T06:31:32;93445.19;;;-1.79;100.00
10466;BME280;5280;42.600;23.556;2023-01-30T06:33:59;93510.66;;;-1.46;100.00
10466;BME280;5280;42.600;23.556;2023-01-30T06:36:26;93472.59;;;-1.70;100.00
10466;BME280;5280;42.600;23.556;2023-01-30T06:38:53;93499.47;;;-1.48;100.00
10466;BME280;5280;42.600;23.556;2023-01-30T06:41:20;93490.72;;;-1.44;100.00
10466;BME280;5280;42.600;23.556;2023-01-30T06:43:48;93507.22;;;-1.47;100.00
10466;BME280;5280;42.600;23.556;2023-01-30T06:46:15;93466.00;;;-1.81;100.00
10466;BME280;5280;42.600;23.556;2023-01-30T06:48:42;93503.06;;;-1.52;100.00
10466;BME280;5280;42.600;23.556;2023-01-30T06:51:09;93434.16;;;-2.12;100.00
10466;BME280;5280;42.600;23.556;2023-01-30T06:53:35;93424.00;;;-2.18;100.00
10466;BME280;5280;42.600;23.556;2023-01-30T06:56:06;93485.91;;;-1.83;100.00
10466;BME280;5280;42.600;23.556;2023-01-30T06:58:32;93518.09;;;-1.63;100.00
10466;BME280;5280;42.600;23.556;2023-01-30T07:01:01;93506.47;;;-1.78;100.00
10466;BME280;5280;42.600;23.556;2023-01-30T07:03:28;93523.22;;;-1.60;100.00
10466;BME280;5280;42.600;23.556;2023-01-30T07:05:54;93525.88;;;-1.63;100.00
10466;BME280;5280;42.600;23.556;2023-01-30T07:08:21;93523.22;;;-1.60;100.00
10466;BME280;5280;42.600;23.556;2023-01-30T07:10:51;93534.28;;;-1.55;100.00
10466;BME280;5280;42.600;23.556;2023-01-30T07:13:18;93471.97;;;-2.06;100.00
10466;BME280;5280;42.600;23.556;2023-01-30T07:15:45;93504.59;;;-1.73;100.00
10466;BME280;5280;42.600;23.556;2023-01-30T07:18:14;93501.38;;;-1.80;100.00
10466;BME280;5280;42.600;23.556;2023-01-30T07:20:42;93519.03;;;-1.64;100.00
10466;BME280;5280;42.600;23.556;2023-01-30T07:23:11;93466.81;;;-2.08;100.00
10466;BME280;5280;42.600;23.556;2023-01-30T07:25:38;93484.63;;;-1.97;100.00
10466;BME280;5280;42.600;23.556;2023-01-30T07:28:05;93532.56;;;-1.56;100.00
10466;BME280;5280;42.600;23.556;2023-01-30T07:30:34;93420.94;;;-2.31;100.00
10466;BME280;5280;42.600;23.556;2023-01-30T07:33:03;93478.13;;;-1.83;100.00
10466;BME280;5280;42.600;23.556;2023-01-30T07:35:34;93442.41;;;-1.99;100.00
10466;BME280;5280;42.600;23.556;2023-01-30T07:38:02;93449.69;;;-1.84;100.00
10466;BME280;5280;42.600;23.556;2023-01-30T07:40:29;93515.16;;;-1.51;100.00
10466;BME280;5280;42.600;23.556;2023-01-30T07:42:57;93540.03;;;-1.46;100.00
10466;BME280;5280;42.600;23.556;2023-01-30T07:45:27;93528.25;;;-1.56;100.00
10466;BME280;5280;42.600;23.556;2023-01-30T07:47:58;93534.91;;;-1.49;100.00
10466;BME280;5280;42.600;23.556;2023-01-30T07:50:25;93529.59;;;-1.44;100.00
10466;BME280;5280;42.600;23.556;2023-01-30T07:52:53;93524.50;;;-1.47;100.00
10466;BME280;5280;42.600;23.556;2023-01-30T07:55:20;93488.59;;;-1.59;100.00
10466;BME280;5280;42.600;23.556;2023-01-30T07:57:50;93492.81;;;-1.55;100.00
10466;BME280;5280;42.600;23.556;2023-01-30T08:00:18;93468.31;;;-1.73;100.00
10466;BME280;5280;42.600;23.556;2023-01-30T08:02:45;93425.94;;;-1.97;100.00
10466;BME280;5280;42.600;23.556;2023-01-30T08:05:14;93474.69;;;-1.55;100.00
10466;BME280;5280;42.600;23.556;2023-01-30T08:07:41;93502.41;;;-1.31;100.00
10466;BME280;5280;42.600;23.556;2023-01-30T08:10:10;93510.06;;;-1.28;100.00
10466;BME280;5280;42.600;23.556;2023-01-30T08:12:38;93506.63;;;-1.28;100.00
10466;BME280;5280;42.600;23.556;2023-01-30T08:15:09;93504.88;;;-1.28;100.00
10466;BME280;5280;42.600;23.556;2023-01-30T08:17:36;93498.69;;;-1.24;100.00
10466;BME280;5280;42.600;23.556;2023-01-30T08:20:03;93496.22;;;-1.27;100.00
10466;BME280;5280;42.600;23.556;2023-01-30T08:22:30;93495.31;;;-1.26;100.00
10466;BME280;5280;42.600;23.556;2023-01-30T08:25:00;93508.31;;;-1.27;100.00
10466;BME280;5280;42.600;23.556;2023-01-30T08:27:28;93502.84;;;-1.18;100.00
10466;BME280;5280;42.600;23.556;2023-01-30T08:29:55;93482.56;;;-1.32;100.00
10466;BME280;5280;42.600;23.556;2023-01-30T08:32:22;93496.78;;;-1.19;100.00
10466;BME280;5280;42.600;23.556;2023-01-30T08:34:48;93489.72;;;-1.14;100.00
10466;BME280;5280;42.600;23.556;2023-01-30T08:37:15;93490.38;;;-1.07;100.00
10466;BME280;5280;42.600;23.556;2023-01-30T08:39:42;93487.72;;;-1.06;100.00
10466;BME280;5280;42.600;23.556;2023-01-30T08:42:08;93484.97;;;-1.01;100.00
10466;BME280;5280;42.600;23.556;2023-01-30T08:44:36;93472.22;;;-1.07;100.00
10466;BME280;5280;42.600;23.556;2023-01-30T08:47:03;93443.88;;;-1.38;100.00
10466;BME280;5280;42.600;23.556;2023-01-30T08:49:30;93462.91;;;-1.13;100.00
10466;BME280;5280;42.600;23.556;2023-01-30T08:51:57;93460.25;;;-1.11;100.00
10466;BME280;5280;42.600;23.556;2023-01-30T08:54:26;93468.78;;;-1.08;100.00
10466;BME280;5280;42.600;23.556;2023-01-30T08:56:53;93484.00;;;-0.99;100.00
10466;BME280;5280;42.600;23.556;2023-01-30T08:59:20;93481.25;;;-0.94;100.00
10466;BME280;5280;42.600;23.556;2023-01-30T09:01:48;93481.69;;;-0.81;100.00
10466;BME280;5280;42.600;23.556;2023-01-30T09:04:15;93470.16;;;-0.73;100.00
10466;BME280;5280;42.600;23.556;2023-01-30T09:06:44;93467.69;;;-0.76;100.00
10466;BME280;5280;42.600;23.556;2023-01-30T09:09:11;93468.97;;;-0.64;100.00
10466;BME280;5280;42.600;23.556;2023-01-30T09:11:37;93470.06;;;-0.70;100.00
10466;BME280;5280;42.600;23.556;2023-01-30T09:14:04;93445.47;;;-0.84;100.00
10466;BME280;5280;42.600;23.556;2023-01-30T09:16:31;93461.34;;;-0.69;100.00
10466;BME280;5280;42.600;23.556;2023-01-30T09:18:59;93458.91;;;-0.73;100.00
10466;BME280;5280;42.600;23.556;2023-01-30T09:21:26;93465.44;;;-0.62;100.00
10466;BME280;5280;42.600;23.556;2023-01-30T09:23:54;93443.13;;;-0.67;100.00
10466;BME280;5280;42.600;23.556;2023-01-30T09:26:21;93456.28;;;-0.49;100.00
10466;BME280;5280;42.600;23.556;2023-01-30T09:28:48;93433.66;;;-0.68;100.00
10466;BME280;5280;42.600;23.556;2023-01-30T09:31:15;93459.66;;;-0.45;100.00
10466;BME280;5280;42.600;23.556;2023-01-30T09:33:42;93430.72;;;-0.59;100.00
10466;BME280;5280;42.600;23.556;2023-01-30T09:36:10;93402.75;;;-0.74;100.00
10466;BME280;5280;42.600;23.556;2023-01-30T09:38:37;93457.09;;;-0.47;100.00
10466;BME280;5280;42.600;23.556;2023-01-30T09:44:17;93400.47;;;-0.83;100.00
10466;BME280;5280;42.600;23.556;2023-01-30T09:46:53;93456.81;;;-0.39;100.00
10466;BME280;5280;42.600;23.556;2023-01-30T09:49:31;93443.78;;;-0.37;100.00
10466;BME280;5280;42.600;23.556;2023-01-30T09:52:11;93447.41;;;-0.41;100.00
10466;BME280;5280;42.600;23.556;2023-01-30T09:54:43;93428.25;;;-0.39;100.00
10466;BME280;5280;42.600;23.556;2023-01-30T09:57:14;93430.16;;;-0.44;100.00
10466;BME280;5280;42.600;23.556;2023-01-30T09:59:47;93422.50;;;-0.47;100.00
10466;BME280;5280;42.600;23.556;2023-01-30T10:02:29;93412.47;;;-0.56;100.00
10466;BME280;5280;42.600;23.556;2023-01-30T10:05:00;93420.63;;;-0.44;100.00
10466;BME280;5280;42.600;23.556;2023-01-30T10:07:40;93416.25;;;-0.41;100.00
10466;BME280;5280;42.600;23.556;2023-01-30T10:10:15;93397.66;;;-0.54;100.00
10466;BME280;5280;42.600;23.556;2023-01-30T10:12:47;93413.81;;;-0.46;100.00
10466;BME280;5280;42.600;23.556;2023-01-30T10:15:36;93413.06;;;-0.50;100.00
10466;BME280;5280;42.600;23.556;2023-01-30T10:21:09;93390.81;;;-0.55;100.00
10466;BME280;5280;42.600;23.556;2023-01-30T10:24:01;93384.19;;;-0.40;100.00
10466;BME280;5280;42.600;23.556;2023-01-30T10:26:32;93379.84;;;-0.40;100.00
10466;BME280;5280;42.600;23.556;2023-01-30T10:29:01;93362.94;;;-0.50;100.00
10466;BME280;5280;42.600;23.556;2023-01-30T10:31:34;93377.81;;;-0.32;100.00
10466;BME280;5280;42.600;23.556;2023-01-30T10:34:04;93359.13;;;-0.41;100.00
10466;BME280;5280;42.600;23.556;2023-01-30T10:36:38;93364.88;;;-0.33;100.00
10466;BME280;5280;42.600;23.556;2023-01-30T10:39:19;93362.22;;;-0.32;100.00
10466;BME280;5280;42.600;23.556;2023-01-30T10:41:53;93354.44;;;-0.32;100.00
10466;BME280;5280;42.600;23.556;2023-01-30T10:44:22;93339.41;;;-0.46;100.00
10466;BME280;5280;42.600;23.556;2023-01-30T10:47:01;93342.59;;;-0.39;100.00
10466;BME280;5280;42.600;23.556;2023-01-30T10:49:38;93347.09;;;-0.44;100.00
10466;BME280;5280;42.600;23.556;2023-01-30T10:52:18;93333.72;;;-0.55;100.00
10466;BME280;5280;42.600;23.556;2023-01-30T10:54:59;93306.59;;;-0.70;100.00
10466;BME280;5280;42.600;23.556;2023-01-30T10:57:39;93329.47;;;-0.58;100.00
10466;BME280;5280;42.600;23.556;2023-01-30T11:00:18;93291.19;;;-0.74;100.00
10466;BME280;5280;42.600;23.556;2023-01-30T11:02:58;93314.88;;;-0.60;100.00
10466;BME280;5280;42.600;23.556;2023-01-30T11:05:34;93310.28;;;-0.54;100.00
10466;BME280;5280;42.600;23.556;2023-01-30T11:08:14;93286.63;;;-0.68;100.00
10466;BME280;5280;42.600;23.556;2023-01-30T11:10:44;93296.06;;;-0.65;100.00
10466;BME280;5280;42.600;23.556;2023-01-30T11:13:15;93289.16;;;-0.66;100.00
10466;BME280;5280;42.600;23.556;2023-01-30T11:15:44;93266.16;;;-0.75;100.00
10466;BME280;5280;42.600;23.556;2023-01-30T11:18:13;93283.19;;;-0.68;100.00
10466;BME280;5280;42.600;23.556;2023-01-30T11:20:42;93279.16;;;-0.75;100.00
10466;BME280;5280;42.600;23.556;2023-01-30T11:23:22;93275.88;;;-0.80;100.00
10466;BME280;5280;42.600;23.556;2023-01-30T11:25:55;93264.75;;;-0.84;100.00
10466;BME280;5280;42.600;23.556;2023-01-30T11:28:23;93246.78;;;-0.89;100.00
10466;BME280;5280;42.600;23.556;2023-01-30T11:30:53;93249.00;;;-0.79;100.00
10466;BME280;5280;42.600;23.556;2023-01-30T11:33:23;93236.31;;;-0.85;100.00
10466;BME280;5280;42.600;23.556;2023-01-30T11:35:57;93255.00;;;-0.77;100.00
10466;BME280;5280;42.600;23.556;2023-01-30T11:38:26;93247.34;;;-0.80;100.00
10466;BME280;5280;42.600;23.556;2023-01-30T11:41:16;93246.84;;;-0.68;100.00
10466;BME280;5280;42.600;23.556;2023-01-30T11:43:43;93238.63;;;-0.79;100.00
10466;BME280;5280;42.600;23.556;2023-01-30T11:46:12;93223.03;;;-0.78;100.00
10466;BME280;5280;42.600;23.556;2023-01-30T11:48:47;93222.16;;;-0.78;100.00
10466;BME280;5280;42.600;23.556;2023-01-30T11:51:18;93226.50;;;-0.79;100.00
10466;BME280;5280;42.600;23.556;2023-01-30T11:53:48;93227.06;;;-0.71;100.00
10466;BME280;5280;42.600;23.556;2023-01-30T11:56:21;93214.34;;;-0.77;100.00
10466;BME280;5280;42.600;23.556;2023-01-30T11:58:54;93206.44;;;-0.74;100.00
10466;BME280;5280;42.600;23.556;2023-01-30T12:01:25;93192.03;;;-0.81;100.00
10466;BME280;5280;42.600;23.556;2023-01-30T12:03:53;93191.84;;;-0.76;100.00
10466;BME280;5280;42.600;23.556;2023-01-30T12:06:21;93195.72;;;-0.65;100.00
10466;BME280;5280;42.600;23.556;2023-01-30T12:08:51;93166.84;;;-0.79;100.00
10466;BME280;5280;42.600;23.556;2023-01-30T12:11:28;93192.25;;;-0.65;100.00
10466;BME280;5280;42.600;23.556;2023-01-30T12:14:12;93176.56;;;-0.62;99.58
10466;BME280;5280;42.600;23.556;2023-01-30T12:16:49;93161.56;;;-0.76;100.00
10466;BME280;5280;42.600;23.556;2023-01-30T12:19:27;93168.91;;;-0.65;100.00
10466;BME280;5280;42.600;23.556;2023-01-30T12:21:59;93160.84;;;-0.59;100.00
10466;BME280;5280;42.600;23.556;2023-01-30T12:24:33;93167.75;;;-0.58;100.00
10466;BME280;5280;42.600;23.556;2023-01-30T12:27:10;93164.00;;;-0.51;100.00
10466;BME280;5280;42.600;23.556;2023-01-30T12:29:50;93167.63;;;-0.55;100.00
10466;BME280;5280;42.600;23.556;2023-01-30T12:32:21;93085.47;;;-1.18;99.63
10466;BME280;5280;42.600;23.556;2023-01-30T12:34:51;93162.59;;;-0.60;100.00
10466;BME280;5280;42.600;23.556;2023-01-30T12:37:30;93164.63;;;-0.66;100.00
10466;BME280;5280;42.600;23.556;2023-01-30T12:40:09;93158.78;;;-0.71;100.00
10466;BME280;5280;42.600;23.556;2023-01-30T12:43:06;93147.50;;;-0.70;100.00
10466;BME280;5280;42.600;23.556;2023-01-30T12:45:39;93151.59;;;-0.65;100.00
10466;BME280;5280;42.600;23.556;2023-01-30T12:48:35;93148.06;;;-0.64;99.53
10466;BME280;5280;42.600;23.556;2023-01-30T12:51:14;93133.53;;;-0.68;99.28
10466;BME280;5280;42.600;23.556;2023-01-30T12:53:53;93137.69;;;-0.64;99.89
10466;BME280;5280;42.600;23.556;2023-01-30T12:56:35;93112.94;;;-0.71;99.26
10466;BME280;5280;42.600;23.556;2023-01-30T12:59:11;93126.84;;;-0.73;98.67
10466;BME280;5280;42.600;23.556;2023-01-30T13:01:47;93122.66;;;-0.76;99.24
10466;BME280;5280;42.600;23.556;2023-01-30T13:04:27;93119.88;;;-0.71;99.50
10466;BME280;5280;42.600;23.556;2023-01-30T13:07:07;93094.50;;;-0.85;99.61
10466;BME280;5280;42.600;23.556;2023-01-30T13:09:47;93122.41;;;-0.70;98.91
10466;BME280;5280;42.600;23.556;2023-01-30T13:12:22;93121.56;;;-0.70;99.15
10466;BME280;5280;42.600;23.556;2023-01-30T13:14:55;93110.16;;;-0.66;98.73
10466;BME280;5280;42.600;23.556;2023-01-30T13:17:36;93118.97;;;-0.70;97.65
10466;BME280;5280;42.600;23.556;2023-01-30T13:20:16;93122.47;;;-0.71;97.89